createdAt,value
2022-10-19T00:16:56.050Z,99.8
2022-10-19T00:36:54.539Z,99.8
2022-10-19T00:57:35.543Z,99.7
2022-10-19T01:16:45.438Z,100
2022-10-19T01:38:37.500Z,100
2022-10-19T01:57:26.790Z,100
2022-10-19T02:18:13.386Z,100
2022-10-19T02:37:39.899Z,100
2022-10-19T02:58:07.319Z,100
2022-10-19T03:16:59.202Z,100
2022-10-19T03:38:20.501Z,100
2022-10-19T03:58:40.367Z,100
2022-10-19T04:18:34.163Z,100
2022-10-19T04:38:02.209Z,100
2022-10-19T04:58:34.189Z,100
2022-10-19T05:17:52.198Z,100
2022-10-19T05:39:03.502Z,100
2022-10-19T05:57:31.797Z,100
2022-10-19T06:17:01.198Z,100
2022-10-19T06:37:36.000Z,100
2022-10-19T06:58:13.989Z,99.9
2022-10-19T07:18:07.682Z,99.2
2022-10-19T07:38:24.272Z,98.1
2022-10-19T07:58:33.747Z,97.4
2022-10-19T08:18:02.323Z,96.6
2022-10-19T08:38:13.746Z,94.5
2022-10-19T08:57:56.731Z,90.8
2022-10-19T09:18:20.359Z,86.7
2022-10-19T09:37:40.417Z,82.3
2022-10-19T09:57:31.070Z,78
2022-10-19T10:18:06.588Z,76.8
2022-10-19T10:38:07.101Z,76.2
2022-10-19T10:58:01.988Z,72.5
2022-10-19T11:18:18.088Z,70.1
2022-10-19T11:38:14.170Z,67.4
2022-10-19T11:57:11.334Z,63.6
2022-10-19T12:37:54.201Z,56.5
2022-10-19T13:17:43.488Z,56.2
2022-10-19T13:38:39.016Z,55.1
2022-10-19T13:58:19.281Z,55.7
2022-10-19T14:18:32.125Z,57.2
2022-10-19T14:38:01.640Z,58.4
2022-10-19T14:57:04.328Z,61.8
2022-10-19T15:18:25.257Z,62.7
2022-10-19T15:38:42.037Z,66.5
2022-10-19T15:58:23.962Z,68.7
2022-10-19T16:18:28.131Z,71.6
2022-10-19T16:38:14.042Z,73.7
2022-10-19T16:58:36.733Z,74.7
2022-10-19T17:37:39.390Z,76.9
2022-10-19T17:58:24.946Z,77.7
2022-10-19T18:18:13.792Z,78.1
2022-10-19T18:38:43.029Z,77.9
2022-10-19T18:58:40.471Z,78.8
2022-10-19T19:17:08.673Z,79.9
2022-10-19T19:38:25.898Z,80.8
2022-10-19T19:58:50.583Z,80.7
2022-10-19T20:17:27.564Z,81.9
2022-10-19T20:37:26.169Z,82.6
2022-10-19T20:58:22.330Z,83.2
2022-10-19T21:17:50.596Z,83.2
2022-10-19T21:38:25.450Z,84.2
2022-10-19T21:57:44.414Z,85.7
2022-10-19T22:18:10.887Z,85.9
2022-10-19T22:37:20.889Z,86.3
2022-10-19T22:58:06.331Z,87.1
2022-10-19T23:18:14.709Z,88.2
2022-10-19T23:39:01.824Z,89.5
2022-10-19T23:58:32.552Z,89.6
